createdAt,value
2018-01-07T00:00:08.283Z,100353.42
2018-01-07T00:02:35.701Z,100358.19
2018-01-07T00:05:03.112Z,100357.22
2018-01-07T00:07:30.569Z,100358.17
2018-01-07T00:09:57.970Z,100365.48
2018-01-07T00:12:25.393Z,100362.73
2018-01-07T00:14:52.838Z,100374.77
2018-01-07T00:17:20.237Z,100368.83
2018-01-07T00:19:47.645Z,100375.82
2018-01-07T00:22:15.073Z,100378.20
2018-01-07T00:24:42.482Z,100383.93
2018-01-07T00:27:09.938Z,100389.16
2018-01-07T00:29:37.374Z,100391.53
2018-01-07T00:32:04.814Z,100395.09
2018-01-07T00:34:32.228Z,100394.50
2018-01-07T00:36:59.632Z,100402.77
2018-01-07T00:39:27.051Z,100399.97
2018-01-07T00:41:54.519Z,100403.77
2018-01-07T00:44:21.884Z,100401.08
2018-01-07T00:46:49.306Z,100405.78
2018-01-07T00:49:16.717Z,100410.70
2018-01-07T00:51:44.140Z,100414.27
2018-01-07T00:54:11.558Z,100411.98
2018-01-07T00:56:38.965Z,100420.29
2018-01-07T00:59:06.386Z,100422.20
2018-01-07T01:01:33.802Z,100420.71
2018-01-07T01:04:01.222Z,100427.07
2018-01-07T01:06:28.638Z,100430.41
2018-01-07T01:08:56.049Z,100442.53
2018-01-07T01:11:23.468Z,100451.37
2018-01-07T01:13:50.905Z,100461.83
2018-01-07T01:16:18.318Z,100458.50
2018-01-07T01:18:45.729Z,100463.41
2018-01-07T01:21:13.172Z,100463.47
2018-01-07T01:23:40.638Z,100473.75
2018-01-07T01:26:08.006Z,100481.36
2018-01-07T01:28:35.435Z,100481.14
2018-01-07T01:31:02.838Z,100492.40
2018-01-07T01:33:30.251Z,100493.84
2018-01-07T01:35:57.693Z,100490.65
2018-01-07T01:38:25.107Z,100507.59
2018-01-07T01:40:52.510Z,100508.31
2018-01-07T01:43:19.942Z,100510.38
2018-01-07T01:45:47.354Z,100515.84
2018-01-07T01:48:14.770Z,100515.87
2018-01-07T01:50:42.213Z,100511.76
2018-01-07T01:53:09.621Z,100517.97
2018-01-07T01:55:37.030Z,100527.53
2018-01-07T01:58:04.469Z,100533.09
2018-01-07T02:00:31.894Z,100532.02
2018-01-07T02:03:00.282Z,100533.65
2018-01-07T02:05:27.732Z,100529.02
2018-01-07T02:07:55.143Z,100537.96
2018-01-07T02:10:22.566Z,100541.94
2018-01-07T02:12:49.981Z,100541.37
2018-01-07T02:15:17.394Z,100542.61
2018-01-07T02:17:44.802Z,100547.15
2018-01-07T02:20:12.225Z,100545.17
2018-01-07T02:22:39.654Z,100534.92
2018-01-07T02:25:07.069Z,100551.52
2018-01-07T02:27:34.514Z,100550.53
2018-01-07T02:30:01.930Z,100561.54
2018-01-07T02:32:29.359Z,100568.78
2018-01-07T02:34:56.800Z,100577.61
2018-01-07T02:37:24.214Z,100578.37
2018-01-07T02:39:51.679Z,100577.11
2018-01-07T02:42:19.082Z,100590.25
2018-01-07T02:44:46.495Z,100588.52
2018-01-07T02:47:13.929Z,100590.41
2018-01-07T02:49:41.339Z,100588.94
2018-01-07T02:52:08.773Z,100597.02
2018-01-07T02:54:36.210Z,100597.20
2018-01-07T02:57:03.633Z,100596.87
2018-01-07T02:59:31.091Z,100597.87
2018-01-07T03:01:58.525Z,100600.59
2018-01-07T03:04:25.969Z,100605.80
2018-01-07T03:06:53.377Z,100603.64
2018-01-07T03:09:20.785Z,100601.48
2018-01-07T03:11:48.218Z,100617.09
2018-01-07T03:14:15.639Z,100619.58
2018-01-07T03:16:43.056Z,100617.84
2018-01-07T03:19:10.485Z,100624.78
2018-01-07T03:21:37.898Z,100619.56
2018-01-07T03:24:05.327Z,100619.55
2018-01-07T03:26:32.746Z,100628.64
2018-01-07T03:29:00.159Z,100632.02
2018-01-07T03:31:27.579Z,100627.33
2018-01-07T03:33:54.989Z,100630.45
2018-01-07T03:36:22.413Z,100632.11
2018-01-07T03:38:49.846Z,100628.89
2018-01-07T03:41:17.261Z,100630.87
2018-01-07T03:43:44.738Z,100632.43
2018-01-07T03:46:12.148Z,100635.49
2018-01-07T03:48:39.567Z,100634.41
2018-01-07T03:51:08.389Z,100639.60
2018-01-07T03:53:35.818Z,100634.08
2018-01-07T03:56:03.275Z,100640.20
2018-01-07T03:58:30.688Z,100642.03
2018-01-07T04:00:58.097Z,100646.47
2018-01-07T04:03:25.525Z,100639.20
2018-01-07T04:05:52.941Z,100639.29
2018-01-07T04:08:20.396Z,100652.40
2018-01-07T04:10:47.798Z,100656.30
2018-01-07T04:13:15.214Z,100655.31
2018-01-07T04:15:42.629Z,100655.31
2018-01-07T04:18:10.057Z,100657.20
2018-01-07T04:20:37.482Z,100650.69
2018-01-07T04:23:04.907Z,100657.86
2018-01-07T04:25:32.323Z,100659.03
2018-01-07T04:27:59.737Z,100653.90
2018-01-07T04:30:27.163Z,100648.78
2018-01-07T04:32:54.575Z,100660.09
2018-01-07T04:35:21.997Z,100656.36
2018-01-07T04:37:49.421Z,100672.23
2018-01-07T04:40:16.881Z,100661.42
2018-01-07T04:42:44.305Z,100661.16
2018-01-07T04:45:11.730Z,100658.18
2018-01-07T04:47:39.141Z,100664.64
2018-01-07T04:50:06.565Z,100672.05
2018-01-07T04:52:33.981Z,100668.09
2018-01-07T04:55:01.423Z,100670.89
2018-01-07T04:57:28.837Z,100675.62
2018-01-07T04:59:56.246Z,100673.40
2018-01-07T05:02:23.677Z,100671.90
2018-01-07T05:04:51.087Z,100684.69
2018-01-07T05:07:18.501Z,100684.70
2018-01-07T05:09:45.922Z,100685.94
2018-01-07T05:12:13.348Z,100686.34
2018-01-07T05:14:40.762Z,100694.84
2018-01-07T05:17:08.171Z,100692.86
2018-01-07T05:19:35.585Z,100704.66
2018-01-07T05:22:03.013Z,100705.55
2018-01-07T05:24:30.440Z,100713.57
2018-01-07T05:26:57.864Z,100717.71
2018-01-07T05:29:25.281Z,100725.23
2018-01-07T05:31:52.693Z,100727.91
2018-01-07T05:34:20.110Z,100738.00
2018-01-07T05:36:47.533Z,100733.65
2018-01-07T05:39:14.962Z,100734.43
2018-01-07T05:41:42.375Z,100740.22
2018-01-07T05:44:09.793Z,100750.40
2018-01-07T05:46:37.210Z,100750.84
2018-01-07T05:49:04.640Z,100748.71
2018-01-07T05:51:32.372Z,100752.25
2018-01-07T05:53:59.805Z,100748.95
2018-01-07T05:56:27.225Z,100760.50
2018-01-07T05:58:54.646Z,100758.01
2018-01-07T06:01:22.056Z,100759.33
2018-01-07T06:03:49.469Z,100773.42
2018-01-07T06:06:16.877Z,100775.73
2018-01-07T06:08:44.786Z,100771.67
2018-01-07T06:11:12.217Z,100768.95
2018-01-07T06:13:39.662Z,100774.64
2018-01-07T06:16:07.076Z,100786.20
2018-01-07T06:18:34.505Z,100788.50
2018-01-07T06:21:01.921Z,100794.67
2018-01-07T06:23:29.357Z,100802.27
2018-01-07T06:25:56.793Z,100814.86
2018-01-07T06:28:24.202Z,100820.23
2018-01-07T06:30:51.625Z,100821.31
2018-01-07T06:33:19.054Z,100818.20
2018-01-07T06:35:46.465Z,100823.28
2018-01-07T06:38:13.886Z,100820.89
2018-01-07T06:40:41.330Z,100827.82
2018-01-07T06:43:08.758Z,100828.20
2018-01-07T06:45:36.174Z,100824.20
2018-01-07T06:48:03.577Z,100845.48
2018-01-07T06:50:30.998Z,100853.15
2018-01-07T06:52:58.414Z,100854.04
2018-01-07T06:55:25.826Z,100859.02
2018-01-07T06:57:53.245Z,100857.43
2018-01-07T07:00:20.666Z,100870.47
2018-01-07T07:02:48.078Z,100871.55
2018-01-07T07:05:15.484Z,100876.98
2018-01-07T07:07:42.914Z,100882.86
2018-01-07T07:10:10.332Z,100882.66
2018-01-07T07:12:37.758Z,100887.23
2018-01-07T07:15:05.170Z,100904.66
2018-01-07T07:17:32.589Z,100907.17
2018-01-07T07:20:00.043Z,100908.95
2018-01-07T07:22:27.436Z,100917.05
2018-01-07T07:24:54.873Z,100923.98
2018-01-07T07:27:22.281Z,100928.37
2018-01-07T07:29:49.738Z,100931.84
2018-01-07T07:32:18.124Z,100943.90
2018-01-07T07:34:45.540Z,100957.62
2018-01-07T07:37:12.985Z,100961.47
2018-01-07T07:39:40.409Z,100963.33
2018-01-07T07:42:07.835Z,100962.12
2018-01-07T07:44:35.241Z,100960.02
2018-01-07T07:47:02.650Z,100956.00
2018-01-07T07:49:30.086Z,100973.36
2018-01-07T07:51:57.497Z,100965.36
2018-01-07T07:54:24.943Z,100972.46
2018-01-07T07:56:52.369Z,100968.63
2018-01-07T07:59:19.797Z,100967.55
2018-01-07T08:01:47.221Z,100965.57
2018-01-07T08:04:14.632Z,100968.41
2018-01-07T08:06:42.042Z,100960.69
2018-01-07T08:09:09.902Z,100989.00
2018-01-07T08:11:37.314Z,100991.63
2018-01-07T08:14:04.733Z,100988.89
2018-01-07T08:16:32.144Z,100993.37
2018-01-07T08:18:59.597Z,100990.89
2018-01-07T08:21:27.015Z,101000.08
2018-01-07T08:23:54.434Z,101003.01
2018-01-07T08:26:21.849Z,101004.39
2018-01-07T08:28:49.258Z,101007.18
2018-01-07T08:31:17.271Z,101007.50
2018-01-07T08:33:44.673Z,101014.81
2018-01-07T08:36:12.112Z,101017.59
2018-01-07T08:38:39.525Z,101032.21
2018-01-07T08:41:06.930Z,101031.37
2018-01-07T08:43:34.348Z,101036.70
2018-01-07T08:46:01.767Z,101038.84
2018-01-07T08:48:29.202Z,101040.24
2018-01-07T08:50:56.660Z,101049.50
2018-01-07T08:53:24.101Z,101033.78
2018-01-07T08:55:51.534Z,101046.58
2018-01-07T08:58:18.949Z,101040.83
2018-01-07T09:00:46.370Z,101045.86
2018-01-07T09:03:13.789Z,101054.84
2018-01-07T09:05:41.205Z,101060.75
2018-01-07T09:08:08.621Z,101074.23
2018-01-07T09:10:36.062Z,101077.02
2018-01-07T09:13:03.475Z,101080.47
2018-01-07T09:15:30.921Z,101083.20
2018-01-07T09:17:58.418Z,101082.66
2018-01-07T09:20:25.881Z,101083.27
2018-01-07T09:22:53.314Z,101083.12
2018-01-07T09:25:20.807Z,101083.17
2018-01-07T09:27:48.204Z,101083.05
2018-01-07T09:30:15.774Z,101094.09
2018-01-07T09:32:43.202Z,101086.83
2018-01-07T09:35:10.687Z,101094.86
2018-01-07T09:37:38.101Z,101097.88
2018-01-07T09:40:05.528Z,101101.28
2018-01-07T09:42:32.945Z,101096.24
2018-01-07T09:45:00.381Z,101100.20
2018-01-07T09:47:27.799Z,101110.95
2018-01-07T09:49:55.269Z,101102.25
2018-01-07T09:52:22.689Z,101114.42
2018-01-07T09:54:50.137Z,101114.58
2018-01-07T09:57:17.541Z,101118.59
2018-01-07T09:59:44.985Z,101115.75
2018-01-07T10:02:12.409Z,101120.05
2018-01-07T10:04:39.843Z,101115.78
2018-01-07T10:07:07.256Z,101118.83
2018-01-07T10:09:34.713Z,101118.06
2018-01-07T10:12:02.147Z,101115.28
2018-01-07T10:14:29.591Z,101114.57
2018-01-07T10:16:56.974Z,101123.62
2018-01-07T10:19:24.401Z,101138.39
2018-01-07T10:21:51.834Z,101133.78
2018-01-07T10:24:19.276Z,101127.83
2018-01-07T10:26:46.694Z,101136.62
2018-01-07T10:29:14.117Z,101151.41
2018-01-07T10:31:41.539Z,101146.94
2018-01-07T10:34:08.954Z,101143.48
2018-01-07T10:36:36.383Z,101161.15
2018-01-07T10:39:03.850Z,101157.53
2018-01-07T10:41:31.273Z,101156.14
2018-01-07T10:43:58.686Z,101162.14
2018-01-07T10:46:26.203Z,101158.12
2018-01-07T10:48:53.659Z,101149.20
2018-01-07T10:51:21.070Z,101145.07
2018-01-07T10:53:48.496Z,101145.28
2018-01-07T10:56:15.938Z,101148.03
2018-01-07T10:58:43.363Z,101152.96
2018-01-07T11:01:16.289Z,101148.19
2018-01-07T11:03:43.709Z,101154.38
2018-01-07T11:06:11.191Z,101152.19
2018-01-07T11:08:38.647Z,101154.30
2018-01-07T11:11:06.258Z,101157.22
2018-01-07T11:13:33.663Z,101159.77
2018-01-07T11:16:01.073Z,101156.76
2018-01-07T11:18:28.490Z,101156.91
2018-01-07T11:20:55.909Z,101157.35
2018-01-07T11:23:23.354Z,101154.70
2018-01-07T11:25:50.773Z,101155.88
2018-01-07T11:28:18.201Z,101154.66
2018-01-07T11:30:45.720Z,101152.88
2018-01-07T11:33:13.131Z,101144.63
2018-01-07T11:35:40.596Z,101141.17
2018-01-07T11:38:08.071Z,101143.83
2018-01-07T11:40:35.482Z,101136.98
2018-01-07T11:43:02.902Z,101142.72
2018-01-07T11:45:30.579Z,101150.44
2018-01-07T11:48:00.137Z,101148.74
2018-01-07T11:50:27.561Z,101152.20
2018-01-07T11:52:55.093Z,101145.81
2018-01-07T11:55:23.514Z,101143.97
2018-01-07T11:57:50.944Z,101149.06
2018-01-07T12:00:18.353Z,101150.39
2018-01-07T12:02:45.779Z,101132.48
2018-01-07T12:05:13.194Z,101131.45
2018-01-07T12:07:41.613Z,101130.88
2018-01-07T12:10:09.429Z,101131.68
2018-01-07T12:12:36.850Z,101140.10
2018-01-07T12:15:04.273Z,101136.73
2018-01-07T12:17:31.698Z,101133.00
2018-01-07T12:19:59.109Z,101141.09
2018-01-07T12:22:26.536Z,101132.30
2018-01-07T12:24:53.969Z,101125.50
2018-01-07T12:27:21.386Z,101124.44
2018-01-07T12:29:48.817Z,101126.29
2018-01-07T12:32:16.229Z,101117.83
2018-01-07T12:34:43.642Z,101115.70
2018-01-07T12:37:11.053Z,101109.94
2018-01-07T12:39:38.461Z,101116.02
2018-01-07T12:42:05.893Z,101114.00
2018-01-07T12:44:33.306Z,101105.02
2018-01-07T12:47:00.722Z,101104.84
2018-01-07T12:49:28.136Z,101100.53
2018-01-07T12:51:55.549Z,101097.51
2018-01-07T12:54:22.966Z,101094.59
2018-01-07T12:56:50.378Z,101096.09
2018-01-07T12:59:17.796Z,101096.56
2018-01-07T13:01:45.201Z,101088.84
2018-01-07T13:04:12.609Z,101089.16
2018-01-07T13:06:40.026Z,101090.03
2018-01-07T13:09:07.437Z,101082.55
2018-01-07T13:11:34.853Z,101084.47
2018-01-07T13:14:02.273Z,101085.90
2018-01-07T13:16:29.764Z,101077.84
2018-01-07T13:18:57.166Z,101082.24
2018-01-07T13:21:24.577Z,101066.98
2018-01-07T13:23:51.998Z,101061.97
2018-01-07T13:26:19.413Z,101061.69
2018-01-07T13:28:46.817Z,101056.17
2018-01-07T13:31:14.238Z,101059.61
2018-01-07T13:33:41.645Z,101060.41
2018-01-07T13:36:09.125Z,101059.08
2018-01-07T13:38:37.550Z,101058.05
2018-01-07T13:41:04.973Z,101064.42
2018-01-07T13:43:32.411Z,101062.64
2018-01-07T13:45:59.821Z,101069.91
2018-01-07T13:48:30.848Z,101068.34
2018-01-07T13:50:58.265Z,101074.53
2018-01-07T13:53:25.685Z,101070.42
2018-01-07T13:55:53.094Z,101058.00
2018-01-07T13:58:20.548Z,101078.01
2018-01-07T14:00:48.365Z,101075.27
2018-01-07T14:03:15.881Z,101073.55
2018-01-07T14:05:43.338Z,101084.52
2018-01-07T14:08:10.754Z,101060.58
2018-01-07T14:10:38.174Z,101082.20
2018-01-07T14:13:05.581Z,101089.77
2018-01-07T14:15:33.003Z,101084.86
2018-01-07T14:18:00.418Z,101098.09
2018-01-07T14:20:27.838Z,101092.56
2018-01-07T14:22:55.258Z,101086.16
2018-01-07T14:25:22.693Z,101091.56
2018-01-07T14:27:50.098Z,101099.15
2018-01-07T14:30:17.513Z,101102.25
2018-01-07T14:32:44.929Z,101106.38
2018-01-07T14:35:12.380Z,101104.90
2018-01-07T14:37:39.780Z,101100.73
2018-01-07T14:40:07.189Z,101101.17
2018-01-07T14:42:34.613Z,101103.67
2018-01-07T14:45:02.034Z,101106.69
2018-01-07T14:47:29.450Z,101124.70
2018-01-07T14:49:56.952Z,101116.02
2018-01-07T14:52:24.352Z,101106.95
2018-01-07T14:54:51.776Z,101114.68
2018-01-07T14:57:19.184Z,101113.06
2018-01-07T14:59:46.642Z,101113.56
2018-01-07T15:02:14.762Z,101123.98
2018-01-07T15:04:42.177Z,101113.47
2018-01-07T15:07:09.687Z,101123.29
2018-01-07T15:09:37.102Z,101121.09
2018-01-07T15:12:05.139Z,101128.72
2018-01-07T15:14:32.549Z,101123.53
2018-01-07T15:16:59.973Z,101125.83
2018-01-07T15:19:27.417Z,101129.38
2018-01-07T15:21:54.840Z,101132.58
2018-01-07T15:24:22.250Z,101131.45
2018-01-07T15:26:49.674Z,101131.55
2018-01-07T15:29:17.081Z,101142.27
2018-01-07T15:31:44.489Z,101147.20
2018-01-07T15:34:11.923Z,101154.38
2018-01-07T15:36:39.330Z,101151.39
2018-01-07T15:39:06.749Z,101157.97
2018-01-07T15:41:34.162Z,101154.55
2018-01-07T15:44:01.590Z,101164.90
2018-01-07T15:46:29.007Z,101162.56
2018-01-07T15:48:56.428Z,101164.25
2018-01-07T15:51:23.874Z,101168.33
2018-01-07T15:53:51.249Z,101168.39
2018-01-07T15:56:18.682Z,101166.84
2018-01-07T15:58:46.093Z,101167.55
2018-01-07T16:01:13.541Z,101173.39
2018-01-07T16:03:41.076Z,101164.51
2018-01-07T16:06:08.485Z,101163.16
2018-01-07T16:08:35.940Z,101165.80
2018-01-07T16:11:03.746Z,101168.61
2018-01-07T16:13:31.171Z,101178.45
2018-01-07T16:15:58.577Z,101181.28
2018-01-07T16:18:26.019Z,101186.59
2018-01-07T16:20:55.436Z,101191.97
2018-01-07T16:23:22.838Z,101197.61
2018-01-07T16:25:50.254Z,101197.95
2018-01-07T16:28:17.662Z,101186.91
2018-01-07T16:30:45.081Z,101192.95
2018-01-07T16:33:12.993Z,101192.06
2018-01-07T16:35:40.414Z,101192.70
2018-01-07T16:38:07.825Z,101192.91
2018-01-07T16:40:35.242Z,101194.47
2018-01-07T16:43:02.664Z,101192.28
2018-01-07T16:45:30.069Z,101192.63
2018-01-07T16:47:57.542Z,101186.89
2018-01-07T16:50:24.914Z,101195.02
2018-01-07T16:52:52.331Z,101201.39
2018-01-07T16:55:19.741Z,101199.54
2018-01-07T16:57:47.158Z,101207.22
2018-01-07T17:00:14.565Z,101205.96
2018-01-07T17:02:42.014Z,101202.57
2018-01-07T17:05:09.430Z,101204.25
2018-01-07T17:07:36.846Z,101203.30
2018-01-07T17:10:04.260Z,101207.91
2018-01-07T17:12:32.286Z,101212.52
2018-01-07T17:15:02.767Z,101202.59
2018-01-07T17:17:30.591Z,101208.78
2018-01-07T17:19:58.002Z,101211.81
2018-01-07T17:22:25.414Z,101214.15
2018-01-07T17:24:52.865Z,101215.20
2018-01-07T17:27:20.322Z,101223.32
2018-01-07T17:29:47.731Z,101223.23
2018-01-07T17:32:15.182Z,101219.20
2018-01-07T17:34:42.598Z,101222.61
2018-01-07T17:37:10.015Z,101213.95
2018-01-07T17:39:37.429Z,101210.09
2018-01-07T17:42:04.845Z,101210.39
2018-01-07T17:44:32.262Z,101208.86
2018-01-07T17:46:59.761Z,101205.34
2018-01-07T17:49:27.129Z,101209.23
2018-01-07T17:51:54.545Z,101216.40
2018-01-07T17:54:21.973Z,101215.42
2018-01-07T17:56:49.387Z,101228.88
2018-01-07T17:59:16.825Z,101230.00
2018-01-07T18:01:44.237Z,101230.98
2018-01-07T18:04:11.703Z,101236.42
2018-01-07T18:06:39.129Z,101237.91
2018-01-07T18:09:06.549Z,101245.18
2018-01-07T18:11:34.482Z,101251.90
2018-01-07T18:14:01.890Z,101257.64
2018-01-07T18:16:29.313Z,101259.76
2018-01-07T18:18:56.721Z,101267.09
2018-01-07T18:21:24.141Z,101263.78
2018-01-07T18:23:51.670Z,101260.31
2018-01-07T18:26:19.094Z,101265.24
2018-01-07T18:28:46.507Z,101268.22
2018-01-07T18:31:13.926Z,101270.22
2018-01-07T18:33:41.337Z,101266.53
2018-01-07T18:36:08.750Z,101269.91
2018-01-07T18:38:36.174Z,101271.98
2018-01-07T18:41:03.585Z,101277.05
2018-01-07T18:43:31.006Z,101277.00
2018-01-07T18:45:58.417Z,101276.80
2018-01-07T18:48:25.841Z,101277.13
2018-01-07T18:50:53.253Z,101272.62
2018-01-07T18:53:20.677Z,101277.99
2018-01-07T18:55:48.098Z,101282.72
2018-01-07T18:58:15.545Z,101275.45
2018-01-07T19:00:42.964Z,101275.67
2018-01-07T19:03:10.394Z,101281.05
2018-01-07T19:05:37.816Z,101277.50
2018-01-07T19:08:05.238Z,101277.27
2018-01-07T19:10:32.669Z,101283.80
2018-01-07T19:13:00.096Z,101294.55
2018-01-07T19:15:27.519Z,101291.58
2018-01-07T19:17:54.946Z,101289.06
2018-01-07T19:20:22.369Z,101288.30
2018-01-07T19:22:49.782Z,101292.81
2018-01-07T19:25:17.192Z,101286.73
2018-01-07T19:27:44.613Z,101292.92
2018-01-07T19:30:12.018Z,101297.62
2018-01-07T19:32:39.441Z,101295.52
2018-01-07T19:35:06.854Z,101298.88
2018-01-07T19:37:34.269Z,101289.47
2018-01-07T19:40:01.683Z,101290.74
2018-01-07T19:42:29.094Z,101289.97
2018-01-07T19:44:56.535Z,101285.55
2018-01-07T19:47:23.953Z,101282.33
2018-01-07T19:49:51.375Z,101282.14
2018-01-07T19:52:18.785Z,101283.07
2018-01-07T19:54:46.207Z,101280.66
2018-01-07T19:57:13.633Z,101285.14
2018-01-07T19:59:41.058Z,101288.69
2018-01-07T20:02:08.522Z,101285.10
2018-01-07T20:04:35.938Z,101276.00
2018-01-07T20:07:03.360Z,101284.00
2018-01-07T20:09:30.775Z,101282.34
2018-01-07T20:11:58.202Z,101282.36
2018-01-07T20:14:25.628Z,101282.41
2018-01-07T20:16:53.053Z,101280.58
2018-01-07T20:19:20.514Z,101286.20
2018-01-07T20:21:47.930Z,101286.95
2018-01-07T20:24:15.359Z,101289.20
2018-01-07T20:26:42.771Z,101291.89
2018-01-07T20:29:10.201Z,101293.00
2018-01-07T20:31:37.618Z,101292.79
2018-01-07T20:34:05.091Z,101290.52
2018-01-07T20:36:32.501Z,101289.32
2018-01-07T20:38:59.914Z,101290.74
2018-01-07T20:41:27.338Z,101291.44
2018-01-07T20:43:54.750Z,101290.63
2018-01-07T20:46:22.166Z,101285.09
2018-01-07T20:48:49.611Z,101287.94
2018-01-07T20:51:17.054Z,101284.61
2018-01-07T20:53:44.506Z,101291.45
2018-01-07T20:56:11.917Z,101277.97
2018-01-07T20:58:39.346Z,101280.69
2018-01-07T21:01:06.757Z,101280.08
2018-01-07T21:03:34.171Z,101277.92
2018-01-07T21:06:01.577Z,101270.22
2018-01-07T21:08:29.790Z,101281.17
2018-01-07T21:10:57.201Z,101281.05
2018-01-07T21:13:24.623Z,101282.38
2018-01-07T21:15:52.038Z,101284.20
2018-01-07T21:18:19.447Z,101283.43
2018-01-07T21:20:46.857Z,101286.10
2018-01-07T21:23:14.310Z,101276.02
2018-01-07T21:25:41.725Z,101278.34
2018-01-07T21:28:09.142Z,101284.52
2018-01-07T21:30:36.561Z,101280.50
2018-01-07T21:33:03.982Z,101274.45
2018-01-07T21:35:31.401Z,101279.31
2018-01-07T21:37:58.813Z,101276.99
2018-01-07T21:40:26.229Z,101275.47
2018-01-07T21:42:53.668Z,101272.84
2018-01-07T21:45:21.095Z,101272.25
2018-01-07T21:47:48.521Z,101266.88
2018-01-07T21:50:15.954Z,101269.61
2018-01-07T21:52:43.494Z,101266.85
2018-01-07T21:55:10.905Z,101274.41
2018-01-07T21:57:38.389Z,101270.43
2018-01-07T22:00:17.473Z,101270.20
2018-01-07T22:02:45.798Z,101268.77
2018-01-07T22:05:14.977Z,101265.42
2018-01-07T22:07:42.389Z,101262.00
2018-01-07T22:10:09.801Z,101263.55
2018-01-07T22:12:37.654Z,101258.34
2018-01-07T22:15:05.074Z,101252.10
2018-01-07T22:17:32.474Z,101242.48
2018-01-07T22:19:59.877Z,101241.82
2018-01-07T22:22:27.293Z,101252.58
2018-01-07T22:24:54.702Z,101245.21
2018-01-07T22:27:22.122Z,101246.34
2018-01-07T22:29:49.529Z,101250.09
2018-01-07T22:32:16.943Z,101251.89
2018-01-07T22:34:44.353Z,101253.78
2018-01-07T22:37:11.773Z,101254.63
2018-01-07T22:39:39.185Z,101257.55
2018-01-07T22:42:06.594Z,101255.47
2018-01-07T22:44:34.009Z,101250.73
2018-01-07T22:47:01.427Z,101255.16
2018-01-07T22:49:28.854Z,101254.17
2018-01-07T22:51:56.285Z,101256.17
2018-01-07T22:54:23.705Z,101256.11
2018-01-07T22:56:51.110Z,101256.50
2018-01-07T22:59:18.541Z,101257.91
2018-01-07T23:01:45.958Z,101259.34
2018-01-07T23:04:13.370Z,101259.31
2018-01-07T23:06:40.790Z,101264.73
2018-01-07T23:09:08.201Z,101260.72
2018-01-07T23:11:35.617Z,101255.34
2018-01-07T23:14:03.029Z,101254.75
2018-01-07T23:16:30.450Z,101252.61
2018-01-07T23:18:57.862Z,101255.88
2018-01-07T23:21:25.334Z,101248.63
2018-01-07T23:23:52.706Z,101246.53
2018-01-07T23:26:20.113Z,101248.98
2018-01-07T23:28:47.532Z,101252.30
2018-01-07T23:31:14.965Z,101250.86
2018-01-07T23:33:42.373Z,101245.67
2018-01-07T23:36:09.786Z,101242.86
2018-01-07T23:38:37.202Z,101247.37
2018-01-07T23:41:04.606Z,101246.27
2018-01-07T23:43:32.049Z,101248.16
2018-01-07T23:45:59.457Z,101237.64
2018-01-07T23:48:26.865Z,101238.84
2018-01-07T23:50:54.281Z,101239.08
2018-01-07T23:53:21.700Z,101241.16
2018-01-07T23:55:49.111Z,101232.56
2018-01-07T23:58:16.517Z,101238.06
